Time;durP1;ratioP1;P1;durP2;ratioP2;P2;SDS_P1;SDS_P2;PMS_P1;PMS_P2;Temp;Humidity;BMP_temperature;BMP_pressure;BME280_temperature;BME280_humidity;BME280_pressure;Samples;Min_cycle;Max_cycle;Signal;HPM_P1;HPM_P2
2021/10/07 00:00:22;;;;;;;0.00;0.00;;;9.20;55.00;;;;;;5054496;28;20473;-81
2021/10/07 00:02:48;;;;;;;0.00;0.00;;;9.20;55.10;;;;;;5054572;28;20024;-80
2021/10/07 00:05:13;;;;;;;0.00;0.00;;;9.20;55.20;;;;;;5054422;28;20195;-81
2021/10/07 00:07:40;;;;;;;0.00;0.00;;;9.20;55.20;;;;;;5054143;28;20100;-79
2021/10/07 00:10:06;;;;;;;0.00;0.00;;;9.20;55.40;;;;;;5054124;28;20092;-79
2021/10/07 00:12:32;;;;;;;0.00;0.00;;;9.20;55.40;;;;;;5054380;28;20031;-81
2021/10/07 00:14:58;;;;;;;0.00;0.00;;;9.20;55.50;;;;;;5054414;28;20104;-81
2021/10/07 00:17:24;;;;;;;0.00;0.00;;;9.20;55.60;;;;;;5053778;28;20029;-81
2021/10/07 00:19:50;;;;;;;0.00;0.00;;;9.20;55.60;;;;;;5036359;28;20028;-80
2021/10/07 00:22:15;;;;;;;0.00;0.00;;;9.10;55.60;;;;;;5060941;28;20119;-79
2021/10/07 00:24:41;;;;;;;0.00;0.00;;;9.10;55.80;;;;;;5074490;28;20056;-80
2021/10/07 00:27:07;;;;;;;0.00;0.00;;;9.10;55.80;;;;;;5074319;28;20057;-80
2021/10/07 00:32:04;;;;;;;0.00;0.00;;;9.10;56.10;;;;;;5074116;28;20372;-80
2021/10/07 00:35:18;;;;;;;0.00;0.00;;;9.10;56.20;;;;;;5055819;28;20028;-80
2021/10/07 00:39:56;;;;;;;0.00;0.00;;;9.00;56.30;;;;;;5074286;28;20036;-80
2021/10/07 00:42:22;;;;;;;0.00;0.00;;;9.00;57.10;;;;;;5074472;28;20032;-80
2021/10/07 00:44:48;;;;;;;0.00;0.00;;;8.90;56.50;;;;;;5084848;28;20103;-80
2021/10/07 00:47:16;;;;;;;0.00;0.00;;;8.90;56.60;;;;;;5090684;28;20140;-80
2021/10/07 00:49:43;;;;;;;0.00;0.00;;;8.80;56.50;;;;;;5090674;28;20024;-79
2021/10/07 00:52:14;;;;;;;0.00;0.00;;;8.80;56.50;;;;;;5092084;28;20031;-79
2021/10/07 00:54:40;;;;;;;0.00;0.00;;;8.80;56.60;;;;;;5074796;28;20028;-79
2021/10/07 00:57:08;;;;;;;0.00;0.00;;;8.70;56.60;;;;;;5092175;28;20048;-79
2021/10/07 00:59:34;;;;;;;0.00;0.00;;;8.70;56.80;;;;;;5092607;28;20439;-80
2021/10/07 01:02:09;;;;;;;0.00;0.00;;;8.60;56.80;;;;;;5069028;28;20396;-80
2021/10/07 01:04:35;;;;;;;0.00;0.00;;;8.60;57.00;;;;;;5073686;28;20021;-79
2021/10/07 01:07:04;;;;;;;0.00;0.00;;;8.60;57.00;;;;;;5073437;28;20503;-81
2021/10/07 01:09:30;;;;;;;0.00;0.00;;;8.60;57.10;;;;;;5073268;28;20040;-80
2021/10/07 01:11:57;;;;;;;0.00;0.00;;;8.50;57.20;;;;;;5073617;28;20021;-81
2021/10/07 01:14:47;;;;;;;0.00;0.00;;;8.50;57.20;;;;;;5073448;28;20081;-81
2021/10/07 01:17:15;;;;;;;0.00;0.00;;;8.50;57.40;;;;;;5073267;28;20491;-80
2021/10/07 01:19:48;;;;;;;0.00;0.00;;;8.40;57.30;;;;;;5073643;28;20028;-79
2021/10/07 01:22:15;;;;;;;0.00;0.00;;;8.40;57.40;;;;;;5073553;28;20025;-79
2021/10/07 01:24:41;;;;;;;0.00;0.00;;;8.40;57.50;;;;;;5073266;28;20031;-79
2021/10/07 01:27:09;;;;;;;0.00;0.00;;;8.40;57.60;;;;;;5073507;28;20053;-81
2021/10/07 01:29:35;;;;;;;0.00;0.00;;;8.30;57.60;;;;;;5071974;28;20036;-79
2021/10/07 01:32:03;;;;;;;0.00;0.00;;;8.40;58.30;;;;;;5073192;28;20415;-81
2021/10/07 01:34:30;;;;;;;0.00;0.00;;;8.30;57.70;;;;;;5073015;28;20082;-81
2021/10/07 01:36:57;;;;;;;0.00;0.00;;;8.30;57.80;;;;;;5072928;28;20024;-81
2021/10/07 01:39:24;;;;;;;0.00;0.00;;;8.30;57.90;;;;;;5073552;28;20533;-81
2021/10/07 01:41:50;;;;;;;0.00;0.00;;;8.30;57.90;;;;;;5073282;28;20100;-81
2021/10/07 01:44:18;;;;;;;0.00;0.00;;;8.30;57.90;;;;;;5073252;28;20025;-80
2021/10/07 01:46:44;;;;;;;0.00;0.00;;;8.20;57.90;;;;;;5058119;28;20093;-81
2021/10/07 01:49:10;;;;;;;0.00;0.00;;;8.30;57.90;;;;;;5059143;28;20123;-79
2021/10/07 01:51:37;;;;;;;0.00;0.00;;;8.20;57.90;;;;;;5075722;28;20029;-79
2021/10/07 01:54:05;;;;;;;0.00;0.00;;;8.20;57.90;;;;;;5075916;28;20029;-79
2021/10/07 01:56:32;;;;;;;0.00;0.00;;;8.20;57.90;;;;;;5076524;28;20461;-79
2021/10/07 01:58:59;;;;;;;0.00;0.00;;;8.20;57.90;;;;;;5076744;28;20032;-79
2021/10/07 02:01:25;;;;;;;0.00;0.00;;;8.20;58.00;;;;;;5076544;28;20078;-82
2021/10/07 02:03:51;;;;;;;0.00;0.00;;;8.20;58.10;;;;;;5076434;28;20031;-80
2021/10/07 02:06:16;;;;;;;0.00;0.00;;;8.20;58.30;;;;;;5077050;28;20107;-80
2021/10/07 02:08:42;;;;;;;0.00;0.00;;;8.10;58.30;;;;;;5076344;28;20036;-80
2021/10/07 02:11:09;;;;;;;0.00;0.00;;;8.10;58.30;;;;;;5076717;28;20461;-80
2021/10/07 02:13:34;;;;;;;0.00;0.00;;;8.10;58.40;;;;;;5075776;28;20043;-80
2021/10/07 02:16:00;;;;;;;0.00;0.00;;;8.10;58.50;;;;;;5076198;28;20103;-80
2021/10/07 02:18:26;;;;;;;0.00;0.00;;;8.00;58.50;;;;;;5076178;28;20036;-80
2021/10/07 02:20:53;;;;;;;0.00;0.00;;;8.00;58.60;;;;;;5058546;28;20033;-80
2021/10/07 02:23:19;;;;;;;0.00;0.00;;;8.00;58.60;;;;;;5076360;28;20090;-80
2021/10/07 02:25:45;;;;;;;0.00;0.00;;;8.00;58.60;;;;;;5076125;28;20075;-81
2021/10/07 02:28:13;;;;;;;0.00;0.00;;;7.90;58.50;;;;;;5058466;28;20032;-80
2021/10/07 02:30:40;;;;;;;0.00;0.00;;;7.90;58.60;;;;;;5076117;28;20445;-80
2021/10/07 02:33:06;;;;;;;0.70;0.03;;;7.90;58.70;;;;;;5074996;28;20031;-80
2021/10/07 02:35:32;;;;;;;0.00;0.00;;;7.90;58.80;;;;;;5058261;28;20104;-80
2021/10/07 02:37:57;;;;;;;0.00;0.00;;;7.80;58.80;;;;;;5076095;28;20535;-80
2021/10/07 02:40:23;;;;;;;0.00;0.00;;;7.90;58.90;;;;;;5076299;28;20384;-80
2021/10/07 02:42:49;;;;;;;0.00;0.00;;;7.80;58.90;;;;;;5074686;28;20024;-80
2021/10/07 02:45:17;;;;;;;0.00;0.00;;;7.80;58.90;;;;;;5076203;28;20349;-80
2021/10/07 02:47:43;;;;;;;0.00;0.00;;;7.80;59.00;;;;;;5075561;28;20473;-80
2021/10/07 02:50:10;;;;;;;0.00;0.00;;;7.80;59.00;;;;;;5075670;28;20036;-80
2021/10/07 02:52:36;;;;;;;0.03;0.00;;;7.70;58.90;;;;;;5074393;28;20028;-80
2021/10/07 02:55:04;;;;;;;0.00;0.00;;;7.70;58.90;;;;;;5057909;28;20028;-80
2021/10/07 02:57:29;;;;;;;0.00;0.00;;;7.70;59.00;;;;;;5075356;28;20037;-80
2021/10/07 02:59:55;;;;;;;0.32;0.00;;;7.70;59.60;;;;;;5075733;28;20131;-81
2021/10/07 03:02:21;;;;;;;0.00;0.00;;;7.70;59.10;;;;;;5075454;28;20579;-80
2021/10/07 03:04:49;;;;;;;0.00;0.00;;;7.60;59.10;;;;;;5075347;28;20024;-81
2021/10/07 03:07:14;;;;;;;0.00;0.00;;;7.60;59.20;;;;;;5057778;28;20458;-80
2021/10/07 03:09:41;;;;;;;0.00;0.00;;;7.60;59.20;;;;;;5075318;28;20107;-80
2021/10/07 03:12:07;;;;;;;0.00;0.00;;;7.60;59.30;;;;;;5075500;28;20051;-80
2021/10/07 03:14:33;;;;;;;0.05;0.05;;;7.50;59.20;;;;;;5075426;28;20025;-80
2021/10/07 03:16:59;;;;;;;0.00;0.00;;;7.50;59.20;;;;;;5075092;28;20032;-79
2021/10/07 03:19:25;;;;;;;0.00;0.00;;;7.50;59.20;;;;;;5075365;28;20432;-80
2021/10/07 03:21:51;;;;;;;0.10;0.00;;;7.50;59.30;;;;;;5075290;28;20024;-80
2021/10/07 03:24:16;;;;;;;0.00;0.00;;;7.50;59.30;;;;;;5076224;28;20051;-79
2021/10/07 03:26:42;;;;;;;0.00;0.00;;;7.40;59.30;;;;;;5076839;28;20102;-79
2021/10/07 03:29:08;;;;;;;0.03;0.00;;;7.40;59.40;;;;;;5057465;28;20025;-79
2021/10/07 03:31:34;;;;;;;0.00;0.00;;;7.40;59.50;;;;;;5075566;28;20028;-81
2021/10/07 03:33:59;;;;;;;0.00;0.00;;;7.40;59.60;;;;;;5075834;28;20034;-79
2021/10/07 03:36:25;;;;;;;0.00;0.00;;;7.40;59.60;;;;;;5091514;28;20052;-79
2021/10/07 03:38:51;;;;;;;0.00;0.00;;;7.30;59.40;;;;;;5090876;28;20028;-78
2021/10/07 03:41:17;;;;;;;0.00;0.00;;;7.30;59.30;;;;;;5088156;28;20072;-80
2021/10/07 03:43:43;;;;;;;0.00;0.00;;;7.30;59.30;;;;;;5082810;28;20103;-79
2021/10/07 03:46:08;;;;;;;0.00;0.00;;;7.20;59.20;;;;;;5080856;28;20021;-80
2021/10/07 03:48:34;;;;;;;0.20;0.00;;;7.20;59.30;;;;;;5086682;28;20032;-79
2021/10/07 03:51:00;;;;;;;0.00;0.00;;;7.20;59.20;;;;;;5069328;28;20024;-80
2021/10/07 03:53:27;;;;;;;0.00;0.00;;;7.10;59.20;;;;;;5064402;28;20025;-81
2021/10/07 03:55:54;;;;;;;0.00;0.00;;;7.20;59.20;;;;;;5037067;28;20021;-81
2021/10/07 03:58:19;;;;;;;0.00;0.00;;;7.10;59.10;;;;;;5054665;28;20098;-80
2021/10/07 04:00:45;;;;;;;0.00;0.00;;;7.10;59.20;;;;;;5054513;28;20461;-81
2021/10/07 04:03:11;;;;;;;0.00;0.00;;;7.10;59.10;;;;;;5054542;28;20090;-80
2021/10/07 04:05:37;;;;;;;0.15;0.00;;;7.10;59.10;;;;;;5054731;28;20025;-80
2021/10/07 04:08:04;;;;;;;0.00;0.00;;;7.10;59.10;;;;;;5059306;28;20029;-81
2021/10/07 04:10:33;;;;;;;0.00;0.00;;;7.10;59.10;;;;;;5054115;28;20021;-81
2021/10/07 04:12:59;;;;;;;0.00;0.00;;;7.10;59.00;;;;;;5036710;28;20500;-80
2021/10/07 04:15:25;;;;;;;0.00;0.00;;;7.10;59.00;;;;;;5054360;28;20456;-80
2021/10/07 04:17:51;;;;;;;0.00;0.00;;;7.10;59.00;;;;;;5053902;28;20033;-81
2021/10/07 04:20:17;;;;;;;0.10;0.00;;;7.10;59.00;;;;;;5036393;28;20060;-80
2021/10/07 04:22:43;;;;;;;0.00;0.00;;;7.10;59.00;;;;;;5054137;28;20025;-81
2021/10/07 04:25:09;;;;;;;0.00;0.00;;;7.20;59.10;;;;;;5036407;28;20442;-81
2021/10/07 04:27:35;;;;;;;0.00;0.00;;;7.20;59.00;;;;;;5036008;28;20059;-80
2021/10/07 04:30:03;;;;;;;0.00;0.00;;;7.20;59.00;;;;;;5036169;28;20025;-81
2021/10/07 04:32:29;;;;;;;0.10;0.10;;;7.20;59.00;;;;;;5036178;28;20461;-80
2021/10/07 04:34:55;;;;;;;0.00;0.00;;;7.20;59.00;;;;;;5053985;28;20078;-80
2021/10/07 04:37:21;;;;;;;0.00;0.00;;;7.20;59.00;;;;;;5053882;28;20052;-80
2021/10/07 04:39:46;;;;;;;0.00;0.00;;;7.20;58.90;;;;;;5035954;28;20032;-81
2021/10/07 04:42:12;;;;;;;0.05;0.00;;;7.30;59.00;;;;;;5019400;28;20040;-81
2021/10/07 04:44:38;;;;;;;0.00;0.00;;;7.30;58.90;;;;;;5035841;28;20029;-81
2021/10/07 04:47:04;;;;;;;0.00;0.00;;;7.30;58.90;;;;;;5053730;28;20025;-82
2021/10/07 04:49:29;;;;;;;0.00;0.00;;;7.30;58.90;;;;;;5053774;28;20492;-81
2021/10/07 04:51:55;;;;;;;0.00;0.00;;;7.30;58.80;;;;;;5035605;28;20029;-81
2021/10/07 04:54:21;;;;;;;0.00;0.00;;;7.30;58.80;;;;;;5052358;28;20021;-80
2021/10/07 04:56:47;;;;;;;0.00;0.00;;;7.40;58.80;;;;;;5053172;28;20036;-81
2021/10/07 04:59:12;;;;;;;0.00;0.00;;;7.40;58.70;;;;;;5053610;28;20032;-81
2021/10/07 05:01:38;;;;;;;1.15;0.00;;;7.40;58.70;;;;;;5053189;28;20032;-81
2021/10/07 05:04:04;;;;;;;0.32;0.08;;;7.50;58.70;;;;;;5053555;28;20025;-84
2021/10/07 05:06:30;;;;;;;0.00;0.00;;;7.50;58.70;;;;;;5036102;28;20029;-85
2021/10/07 05:08:56;;;;;;;0.00;0.00;;;7.50;58.70;;;;;;5036405;28;20029;-85
2021/10/07 05:11:22;;;;;;;0.00;0.00;;;7.60;58.60;;;;;;5055296;28;20029;-84
2021/10/07 05:13:48;;;;;;;0.00;0.00;;;7.60;58.40;;;;;;5035702;28;20021;-82
2021/10/07 05:16:15;;;;;;;0.00;0.00;;;7.70;58.30;;;;;;5053804;28;20025;-82
2021/10/07 05:18:40;;;;;;;0.00;0.00;;;7.70;58.10;;;;;;5035920;28;20087;-82
2021/10/07 05:21:06;;;;;;;0.00;0.00;;;7.80;58.00;;;;;;5055370;28;20021;-81
2021/10/07 05:23:34;;;;;;;0.00;0.00;;;7.80;57.80;;;;;;5039597;28;20412;-81
2021/10/07 05:26:00;;;;;;;0.00;0.00;;;7.90;57.70;;;;;;5057307;28;20124;-81
2021/10/07 05:28:27;;;;;;;0.10;0.00;;;7.90;57.60;;;;;;5057034;28;20099;-81
2021/10/07 05:30:53;;;;;;;0.00;0.00;;;8.00;57.50;;;;;;5039248;28;20032;-82
2021/10/07 05:33:22;;;;;;;0.00;0.00;;;8.00;57.40;;;;;;5057540;28;20029;-81
2021/10/07 05:35:49;;;;;;;0.00;0.00;;;8.00;57.20;;;;;;5044668;28;20060;-81
2021/10/07 05:38:19;;;;;;;0.00;0.00;;;8.10;57.20;;;;;;5020516;28;20044;-82
2021/10/07 05:40:53;;;;;;;0.00;0.00;;;8.10;57.10;;;;;;5037162;28;20037;-81
2021/10/07 05:43:24;;;;;;;0.00;0.00;;;8.20;57.00;;;;;;5037838;28;20079;-81
2021/10/07 05:45:50;;;;;;;0.00;0.00;;;8.30;56.90;;;;;;5037125;28;20080;-80
2021/10/07 05:48:16;;;;;;;0.00;0.00;;;8.30;56.80;;;;;;5019970;28;20421;-80
2021/10/07 05:50:46;;;;;;;0.00;0.00;;;8.40;56.70;;;;;;5000472;28;20026;-82
2021/10/07 05:53:12;;;;;;;0.00;0.00;;;8.40;56.50;;;;;;5019648;28;20029;-81
2021/10/07 05:55:38;;;;;;;0.00;0.00;;;8.50;56.40;;;;;;5020313;28;20022;-81
2021/10/07 05:58:04;;;;;;;0.13;0.00;;;8.60;56.30;;;;;;5037026;28;20025;-82
2021/10/07 06:00:30;;;;;;;0.20;0.17;;;8.60;56.10;;;;;;5037970;28;20432;-81
2021/10/07 06:02:56;;;;;;;0.20;0.05;;;8.70;56.00;;;;;;5020177;28;20147;-81
2021/10/07 06:05:23;;;;;;;0.00;0.00;;;8.70;55.80;;;;;;5037629;28;20061;-80
2021/10/07 06:07:49;;;;;;;0.00;0.00;;;8.70;55.60;;;;;;5019420;28;20036;-79
2021/10/07 06:10:15;;;;;;;0.00;0.00;;;8.80;55.60;;;;;;5037180;28;20541;-81
2021/10/07 06:12:45;;;;;;;0.20;0.10;;;8.80;55.40;;;;;;5036719;28;20030;-81
2021/10/07 06:15:12;;;;;;;0.00;0.00;;;8.80;55.20;;;;;;5019848;28;20029;-81
2021/10/07 06:17:43;;;;;;;0.00;0.00;;;8.80;55.70;;;;;;5003159;28;20042;-82
2021/10/07 06:22:52;;;;;;;0.00;0.00;;;9.00;55.20;;;;;;5037121;28;20029;-79
2021/10/07 06:25:20;;;;;;;0.00;0.00;;;9.00;55.00;;;;;;5019471;28;20026;-79
2021/10/07 06:27:50;;;;;;;0.00;0.00;;;9.00;55.20;;;;;;5016636;28;20507;-82
2021/10/07 06:30:17;;;;;;;0.00;0.00;;;9.10;55.00;;;;;;5015758;28;20401;-82
2021/10/07 06:32:44;;;;;;;0.00;0.00;;;9.20;54.80;;;;;;5016372;28;20037;-82
2021/10/07 06:35:11;;;;;;;0.00;0.00;;;9.20;54.60;;;;;;5015535;28;20034;-82
2021/10/07 06:37:38;;;;;;;0.00;0.00;;;9.30;54.50;;;;;;5016327;28;20036;-83
2021/10/07 06:40:05;;;;;;;0.32;0.00;;;9.30;54.30;;;;;;5017207;28;20034;-81
2021/10/07 06:42:31;;;;;;;0.10;0.10;;;9.40;54.10;;;;;;5017257;28;20030;-82
2021/10/07 06:44:59;;;;;;;0.00;0.00;;;9.40;54.00;;;;;;5017605;28;20109;-82
2021/10/07 06:47:26;;;;;;;0.00;0.00;;;9.40;53.90;;;;;;5033874;28;20034;-83
2021/10/07 06:49:53;;;;;;;0.10;0.00;;;9.50;53.80;;;;;;5017262;28;20385;-81
2021/10/07 06:52:19;;;;;;;0.30;0.00;;;9.50;53.70;;;;;;5015973;28;20028;-85
2021/10/07 06:54:49;;;;;;;0.00;0.00;;;9.60;53.40;;;;;;5016811;28;20050;-80
2021/10/07 06:57:22;;;;;;;0.00;0.00;;;9.80;53.30;;;;;;5017377;28;20030;-81
2021/10/07 06:59:51;;;;;;;0.00;0.00;;;9.90;53.20;;;;;;5018283;28;20398;-81
2021/10/07 07:02:20;;;;;;;0.00;0.00;;;10.00;53.00;;;;;;5027462;28;20044;-83
2021/10/07 07:04:45;;;;;;;0.00;0.00;;;10.20;52.60;;;;;;5026713;28;20026;-81
2021/10/07 07:07:11;;;;;;;0.00;0.00;;;10.30;52.10;;;;;;5042050;28;20061;-82
2021/10/07 07:09:38;;;;;;;0.00;0.00;;;10.50;51.70;;;;;;5024004;28;20026;-83
2021/10/07 07:12:05;;;;;;;0.08;0.00;;;10.70;51.30;;;;;;5024896;28;20042;-82
2021/10/07 07:14:32;;;;;;;0.03;0.03;;;10.90;51.00;;;;;;5028524;28;20033;-83
2021/10/07 07:16:58;;;;;;;0.00;0.00;;;11.10;50.60;;;;;;5023366;28;20098;-83
2021/10/07 07:19:25;;;;;;;0.00;0.00;;;11.20;50.20;;;;;;5024436;28;20044;-81
2021/10/07 07:21:52;;;;;;;0.00;0.00;;;11.40;49.90;;;;;;5020599;28;20029;-81
2021/10/07 07:24:19;;;;;;;0.08;0.08;;;11.50;49.60;;;;;;5023459;28;20033;-81
2021/10/07 07:26:46;;;;;;;0.00;0.00;;;11.70;49.30;;;;;;5031756;28;20436;-84
2021/10/07 07:29:13;;;;;;;0.00;0.00;;;11.90;48.70;;;;;;5055519;28;20021;-81
2021/10/07 07:31:42;;;;;;;0.00;0.00;;;12.10;48.30;;;;;;5038975;28;20075;-83
2021/10/07 07:34:08;;;;;;;0.17;0.17;;;12.30;47.90;;;;;;5035418;28;20405;-82
2021/10/07 07:36:33;;;;;;;0.00;0.00;;;12.50;47.60;;;;;;5037830;28;20034;-83
2021/10/07 07:38:59;;;;;;;0.00;0.00;;;12.70;47.30;;;;;;5036438;28;20026;-80
2021/10/07 07:41:26;;;;;;;0.00;0.00;;;12.80;46.90;;;;;;5037859;28;20045;-83
2021/10/07 07:43:52;;;;;;;0.00;0.00;;;13.00;46.60;;;;;;5035944;28;20351;-82
2021/10/07 07:46:18;;;;;;;0.00;0.00;;;13.10;46.20;;;;;;5037088;28;20509;-82
2021/10/07 07:48:47;;;;;;;0.00;0.00;;;13.30;45.70;;;;;;5034246;28;20385;-81
2021/10/07 07:51:18;;;;;;;0.00;0.00;;;13.50;45.40;;;;;;5017171;28;20025;-81
2021/10/07 07:53:46;;;;;;;0.00;0.00;;;13.80;45.20;;;;;;5035746;28;20166;-81
2021/10/07 07:56:21;;;;;;;0.50;0.25;;;14.20;44.90;;;;;;5030509;28;20048;-82
2021/10/07 07:58:51;;;;;;;0.05;0.00;;;14.70;44.20;;;;;;5049970;28;20037;-82
2021/10/07 08:01:19;;;;;;;0.08;0.08;;;15.20;43.80;;;;;;5025863;28;20038;-82
2021/10/07 08:03:45;;;;;;;0.00;0.00;;;15.60;43.10;;;;;;5027933;28;20030;-80
2021/10/07 08:06:17;;;;;;;0.00;0.00;;;16.20;42.40;;;;;;5020785;28;20117;-81
2021/10/07 08:08:43;;;;;;;0.00;0.00;;;16.80;41.60;;;;;;5026501;28;20018;-81
2021/10/07 08:11:13;;;;;;;0.00;0.00;;;17.50;40.90;;;;;;5023247;28;20024;-84
2021/10/07 08:13:39;;;;;;;0.00;0.00;;;18.30;39.10;;;;;;5025290;28;20034;-81
2021/10/07 08:16:11;;;;;;;0.00;0.00;;;19.10;38.00;;;;;;5024326;28;20024;-81
2021/10/07 08:18:39;;;;;;;0.13;0.10;;;20.00;36.40;;;;;;5023807;28;20113;-81
2021/10/07 08:21:05;;;;;;;0.10;0.10;;;20.80;35.00;;;;;;5027752;28;20365;-80
2021/10/07 08:23:36;;;;;;;0.10;0.10;;;21.50;34.20;;;;;;5024573;28;20469;-81
2021/10/07 08:26:06;;;;;;;0.10;0.10;;;21.90;33.30;;;;;;5029398;28;20274;-82
2021/10/07 08:28:37;;;;;;;0.00;0.00;;;22.40;32.70;;;;;;5031390;28;20485;-83
2021/10/07 08:31:04;;;;;;;0.00;0.00;;;23.00;31.70;;;;;;5027748;28;20060;-82
2021/10/07 08:33:53;;;;;;;0.00;0.00;;;23.40;31.00;;;;;;5042147;28;20024;-84
2021/10/07 08:36:20;;;;;;;0.00;0.00;;;24.10;30.10;;;;;;5040119;28;20490;-82
2021/10/07 08:38:50;;;;;;;0.00;0.00;;;24.70;30.00;;;;;;5046755;28;20029;-83
2021/10/07 08:41:22;;;;;;;0.00;0.00;;;25.00;29.50;;;;;;5051194;28;20026;-82
2021/10/07 08:43:56;;;;;;;0.00;0.00;;;25.30;29.30;;;;;;5052558;28;20025;-81
2021/10/07 08:46:23;;;;;;;0.00;0.00;;;25.90;29.20;;;;;;5049933;28;20040;-80
2021/10/07 08:48:51;;;;;;;0.20;0.15;;;26.30;28.90;;;;;;5055064;28;20147;-83
2021/10/07 08:51:17;;;;;;;0.00;0.00;;;26.40;28.40;;;;;;5041946;28;20021;-80
2021/10/07 08:53:44;;;;;;;0.00;0.00;;;26.70;28.40;;;;;;5053459;28;20025;-84
2021/10/07 08:56:10;;;;;;;0.00;0.00;;;26.90;27.60;;;;;;5053916;28;20051;-81
2021/10/07 08:58:36;;;;;;;0.15;0.15;;;27.10;27.50;;;;;;5035292;28;20033;-79
2021/10/07 09:01:05;;;;;;;0.00;0.00;;;27.50;27.10;;;;;;5053186;28;20021;-78
2021/10/07 09:03:31;;;;;;;0.00;0.00;;;27.70;26.70;;;;;;5035683;28;20033;-82
2021/10/07 09:06:26;;;;;;;0.00;0.00;;;27.90;26.70;;;;;;5053633;28;20462;-82
2021/10/07 09:08:54;;;;;;;0.00;0.00;;;28.00;26.70;;;;;;5022653;28;20055;-82
2021/10/07 09:11:30;;;;;;;0.00;0.00;;;28.60;27.40;;;;;;5057036;28;20429;-82
2021/10/07 09:14:05;;;;;;;0.00;0.00;;;29.20;26.70;;;;;;5055507;28;20373;-80
2021/10/07 09:16:45;;;;;;;0.00;0.00;;;29.60;26.50;;;;;;5053045;28;20454;-81
2021/10/07 09:19:13;;;;;;;0.20;0.08;;;30.00;26.30;;;;;;5053785;28;20071;-82
2021/10/07 09:21:39;;;;;;;0.00;0.00;;;30.30;26.30;;;;;;5071630;28;20052;-80
2021/10/07 09:24:27;;;;;;;0.00;0.00;;;30.50;26.10;;;;;;5073042;28;20067;-83
2021/10/07 09:26:53;;;;;;;0.00;0.00;;;30.60;25.90;;;;;;5071354;28;20052;-81
2021/10/07 09:29:30;;;;;;;0.00;0.00;;;30.60;25.90;;;;;;5037687;28;20079;-80
2021/10/07 09:31:56;;;;;;;0.00;0.00;;;30.90;25.70;;;;;;5072098;28;20369;-81
2021/10/07 09:34:22;;;;;;;0.00;0.00;;;31.20;26.40;;;;;;5053172;28;20029;-80
2021/10/07 09:36:50;;;;;;;0.00;0.00;;;31.50;25.90;;;;;;5034515;28;20058;-82
2021/10/07 09:39:20;;;;;;;0.00;0.00;;;31.60;25.70;;;;;;5056459;28;20036;-82
2021/10/07 09:41:49;;;;;;;0.00;0.00;;;31.80;25.50;;;;;;5065247;28;20021;-80
2021/10/07 09:44:16;;;;;;;0.00;0.00;;;32.20;25.50;;;;;;5061142;28;20371;-81
2021/10/07 09:46:52;;;;;;;0.00;0.00;;;32.40;25.30;;;;;;5052137;28;20033;-81
2021/10/07 09:49:33;;;;;;;0.00;0.00;;;32.80;25.20;;;;;;5055242;28;20025;-81
2021/10/07 09:52:01;;;;;;;0.00;0.00;;;33.00;25.10;;;;;;5036751;28;20033;-82
2021/10/07 09:54:33;;;;;;;0.00;0.00;;;33.30;25.30;;;;;;5052764;28;20465;-82
2021/10/07 09:57:02;;;;;;;0.00;0.00;;;33.50;25.00;;;;;;5053141;28;20021;-82
2021/10/07 09:59:30;;;;;;;0.00;0.00;;;33.70;25.00;;;;;;5052929;28;20029;-81
2021/10/07 10:01:56;;;;;;;0.00;0.00;;;33.90;24.90;;;;;;5053263;28;20025;-81
2021/10/07 10:04:27;;;;;;;0.00;0.00;;;34.10;24.70;;;;;;5053136;28;20029;-81
2021/10/07 10:06:53;;;;;;;0.10;0.10;;;34.30;24.40;;;;;;5063668;28;20035;-81
2021/10/07 10:09:23;;;;;;;0.00;0.00;;;34.50;24.40;;;;;;5076930;28;20029;-82
2021/10/07 10:11:49;;;;;;;0.00;0.00;;;34.60;24.30;;;;;;5069653;28;20036;-81
2021/10/07 10:14:15;;;;;;;0.03;0.03;;;34.80;24.20;;;;;;5047101;28;20024;-82
2021/10/07 10:16:41;;;;;;;0.00;0.00;;;34.30;24.00;;;;;;5048120;28;20046;-82
2021/10/07 10:19:09;;;;;;;0.00;0.00;;;34.30;24.10;;;;;;5056572;28;20142;-82
2021/10/07 10:21:39;;;;;;;0.00;0.00;;;34.30;24.00;;;;;;5038555;28;20547;-81
2021/10/07 10:24:08;;;;;;;0.00;0.00;;;34.50;24.00;;;;;;5056025;28;20052;-81
2021/10/07 10:26:38;;;;;;;0.10;0.00;;;34.40;23.90;;;;;;5056093;28;20053;-81
2021/10/07 10:29:21;;;;;;;0.13;0.00;;;34.40;23.90;;;;;;5038587;28;20469;-81
2021/10/07 10:31:51;;;;;;;0.00;0.00;;;34.00;23.70;;;;;;5038384;28;20418;-81
2021/10/07 10:34:20;;;;;;;0.10;0.00;;;33.70;23.90;;;;;;5038327;28;20029;-82
2021/10/07 10:36:52;;;;;;;0.00;0.00;;;33.90;24.00;;;;;;5056067;28;20028;-81
2021/10/07 10:39:34;;;;;;;0.00;0.00;;;34.30;24.20;;;;;;5038337;28;20115;-81
2021/10/07 10:42:03;;;;;;;0.00;0.00;;;34.40;24.20;;;;;;5038057;28;20033;-81
2021/10/07 10:44:41;;;;;;;0.00;0.00;;;34.40;24.20;;;;;;5063901;28;20044;-81
2021/10/07 10:47:06;;;;;;;0.00;0.00;;;34.20;24.00;;;;;;5071795;28;20044;-81
2021/10/07 10:49:42;;;;;;;0.00;0.00;;;34.30;24.30;;;;;;5072977;28;20032;-79
2021/10/07 10:52:34;;;;;;;0.10;0.00;;;34.60;24.30;;;;;;5062188;28;20055;-79
2021/10/07 10:55:05;;;;;;;0.00;0.00;;;35.00;24.10;;;;;;5060185;28;20105;-82
2021/10/07 10:57:41;;;;;;;0.00;0.00;;;35.20;23.90;;;;;;5069296;28;20036;-79
2021/10/07 11:00:09;;;;;;;0.00;0.00;;;35.20;23.60;;;;;;5070338;28;20104;-80
2021/10/07 11:02:36;;;;;;;0.00;0.00;;;35.10;23.60;;;;;;5054600;28;20024;-83
2021/10/07 11:05:11;;;;;;;0.00;0.00;;;35.20;23.60;;;;;;5070146;28;20391;-83
2021/10/07 11:07:37;;;;;;;0.00;0.00;;;35.30;23.40;;;;;;5078288;28;20035;-81
2021/10/07 11:10:06;;;;;;;0.00;0.00;;;35.50;23.40;;;;;;5079234;28;20451;-81
2021/10/07 11:12:54;;;;;;;0.03;0.03;;;35.80;23.30;;;;;;5078087;28;20128;-83
2021/10/07 11:15:23;;;;;;;0.00;0.00;;;36.00;23.20;;;;;;5071114;28;20124;-82
2021/10/07 11:17:49;;;;;;;0.00;0.00;;;36.10;23.20;;;;;;5037472;28;20033;-82
2021/10/07 11:20:24;;;;;;;0.00;0.00;;;36.20;23.30;;;;;;5055298;28;20100;-82
2021/10/07 11:23:09;;;;;;;0.00;0.00;;;36.20;23.20;;;;;;5055574;28;20032;-81
2021/10/07 11:25:56;;;;;;;0.00;0.00;;;36.10;23.10;;;;;;5055206;28;20029;-82
2021/10/07 11:28:41;;;;;;;0.00;0.00;;;36.20;23.30;;;;;;5037881;28;20028;-82
2021/10/07 11:31:15;;;;;;;0.00;0.00;;;36.40;23.40;;;;;;5037032;28;20491;-82
2021/10/07 11:33:49;;;;;;;0.00;0.00;;;36.60;23.10;;;;;;5055130;28;20112;-82
2021/10/07 11:36:18;;;;;;;0.00;0.00;;;36.60;22.90;;;;;;5037632;28;20037;-80
2021/10/07 11:38:46;;;;;;;0.00;0.00;;;36.50;23.00;;;;;;5055273;28;20471;-83
2021/10/07 11:41:14;;;;;;;0.00;0.00;;;36.30;23.10;;;;;;5039755;28;20033;-80
2021/10/07 11:43:41;;;;;;;0.00;0.00;;;36.20;23.10;;;;;;5034932;28;20026;-81
2021/10/07 11:46:13;;;;;;;0.00;0.00;;;36.40;23.10;;;;;;5035105;28;20025;-82
2021/10/07 11:48:45;;;;;;;0.00;0.00;;;36.30;23.00;;;;;;5021853;28;20082;-82
2021/10/07 11:51:12;;;;;;;0.00;0.00;;;36.40;23.10;;;;;;5052821;28;20057;-80
2021/10/07 11:53:39;;;;;;;0.00;0.00;;;36.40;23.10;;;;;;5054033;28;20064;-81
2021/10/07 11:56:14;;;;;;;0.00;0.00;;;36.40;23.20;;;;;;5054148;28;20049;-81
2021/10/07 11:58:40;;;;;;;0.10;0.10;;;35.80;23.40;;;;;;5035970;28;20033;-80
2021/10/07 12:01:09;;;;;;;0.10;0.10;;;35.30;23.60;;;;;;5053636;28;20025;-81
2021/10/07 12:03:37;;;;;;;0.00;0.00;;;35.00;23.70;;;;;;5054480;28;20029;-79
2021/10/07 12:06:14;;;;;;;0.10;0.10;;;34.70;23.50;;;;;;5053914;28;20484;-80
2021/10/07 12:08:45;;;;;;;0.38;0.15;;;34.40;23.40;;;;;;5053754;28;20485;-82
2021/10/07 12:11:20;;;;;;;0.10;0.10;;;34.20;23.40;;;;;;5054107;28;20021;-80
2021/10/07 12:13:52;;;;;;;0.00;0.00;;;33.90;23.40;;;;;;5053792;28;20137;-80
2021/10/07 12:16:22;;;;;;;0.00;0.00;;;33.60;23.30;;;;;;5036218;28;20032;-81
2021/10/07 12:18:56;;;;;;;0.00;0.00;;;33.30;23.30;;;;;;5054027;28;20029;-81
2021/10/07 12:21:27;;;;;;;0.00;0.00;;;32.30;23.20;;;;;;5054201;28;20037;-81
2021/10/07 12:23:57;;;;;;;0.05;0.00;;;30.60;23.20;;;;;;5034995;28;20024;-81
2021/10/07 12:26:39;;;;;;;0.00;0.00;;;28.90;23.50;;;;;;5027973;28;20053;-80
2021/10/07 12:29:17;;;;;;;0.00;0.00;;;27.40;23.70;;;;;;5053676;28;20029;-80
2021/10/07 12:31:56;;;;;;;0.00;0.00;;;25.90;24.30;;;;;;5028834;28;20579;-83
2021/10/07 12:34:30;;;;;;;0.00;0.00;;;24.70;24.90;;;;;;5043545;28;20021;-83
2021/10/07 12:36:59;;;;;;;0.00;0.00;;;23.90;25.50;;;;;;5029051;28;20095;-79
2021/10/07 12:39:28;;;;;;;0.40;0.03;;;23.10;25.70;;;;;;5032269;28;20041;-80
2021/10/07 12:42:01;;;;;;;0.00;0.00;;;22.50;26.20;;;;;;5051196;28;20025;-80
2021/10/07 12:44:36;;;;;;;0.00;0.00;;;21.90;26.60;;;;;;5054245;28;20381;-79
2021/10/07 12:47:05;;;;;;;0.00;0.00;;;21.50;27.10;;;;;;5032949;28;20025;-80
2021/10/07 12:49:42;;;;;;;0.00;0.00;;;21.60;27.50;;;;;;5067797;28;20469;-81
2021/10/07 12:52:21;;;;;;;0.00;0.00;;;21.90;27.40;;;;;;5061949;28;20036;-79
2021/10/07 12:54:59;;;;;;;0.00;0.00;;;22.50;27.30;;;;;;5035548;28;20412;-82
2021/10/07 12:57:51;;;;;;;0.03;0.03;;;23.40;27.10;;;;;;5055021;28;20112;-82
2021/10/07 13:00:43;;;;;;;0.00;0.00;;;24.60;26.60;;;;;;5033356;28;20032;-83
2021/10/07 13:03:23;;;;;;;0.00;0.00;;;26.00;26.10;;;;;;5042908;28;20113;-81
2021/10/07 13:05:49;;;;;;;0.00;0.00;;;27.20;25.70;;;;;;5063093;28;20040;-80
2021/10/07 13:08:16;;;;;;;0.08;0.00;;;28.00;25.50;;;;;;5038502;28;20473;-81